Latest Weather Observations for Ivanhoe Airport

IDN60801

Issued at 1:05 pm EDT Monday 24 November 2014 (issued every 30 minutes, with the page automatically refreshed every 10 minutes)

About weather observations | Map of weather stations | Latest weather observations for NSW | Other Formats
Station Details ID: 049000 Name: IVANHOE AERODROME AWS Lat: -32.88 Lon: 144.31 Height: 100.0 m
Data from the previous 72 hours. | See also: Recent months at Ivanhoe Airport
Date/Time
EDT
Temp
°C
App
Temp
°C
Dew
Point
Rel
Hum
%
Delta-T
°C
Wind Press
QNH
hPa
Press
MSL
hPa
Rain
since 9 am
mm
Dir
 
Spd
km/h
Gust
km/h
Spd
kts
Gust
kts
24/01:00pm 27.1 25.9 18.4 59 5.6 E 22 26 12 14 1009.9 1009.5 1.8
24/12:30pm 25.6 24.7 18.3 64 4.6 E 20 26 11 14 1010.0 1009.6 1.8
24/12:00pm 22.9 22.3 18.4 76 2.8 SE 19 26 10 14 1010.8 1010.4 1.8
24/11:30am 21.8 22.1 18.0 79 2.4 SSE 13 20 7 11 1011.2 1010.8 1.8
24/11:00am 22.6 21.9 17.3 72 3.3 S 17 26 9 14 1011.8 1011.4 1.2
24/10:30am 22.7 21.7 16.7 69 3.7 S 17 24 9 13 1012.3 1011.9 1.2
24/10:00am 21.2 21.1 17.8 81 2.1 S 15 20 8 11 1012.6 1012.2 1.2
24/09:30am 19.6 19.5 17.9 90 1.1 S 15 20 8 11 1013.3 1012.9 1.2
24/09:00am 20.3 20.2 17.9 86 1.5 SW 15 22 8 12 1013.4 1013.0 1.4
24/08:30am 21.8 21.2 15.6 68 3.7 WSW 13 15 7 8 1013.1 1012.7 0.4
24/08:00am 23.9 23.6 14.3 55 5.7 W 9 13 5 7 1012.6 1012.2 0.2
24/07:30am 25.5 24.7 11.7 42 7.9 NE 7 11 4 6 1011.8 1011.4 0.0
24/07:00am 25.0 23.6 12.2 44 7.4 ENE 11 13 6 7 1011.3 1010.9 0.0
24/06:30am 25.1 23.3 12.0 44 7.5 ENE 13 20 7 11 1011.5 1011.1 0.0
24/06:00am 25.0 21.1 12.2 44 7.4 E 24 33 13 18 1011.3 1010.9 0.0
24/05:30am 25.0 20.9 12.6 46 7.2 ENE 26 32 14 17 1011.5 1011.1 0.0
24/05:00am 25.5 23.9 12.7 45 7.4 E 13 17 7 9 1012.3 1011.9 0.0
24/04:30am 25.8 24.9 12.6 44 7.7 ENE 9 13 5 7 1012.1 1011.7 0.0
24/04:00am 26.9 25.3 10.2 35 9.4 S 9 17 5 9 1011.2 1010.8 0.0
24/03:30am 27.2 25.3 9.1 32 10.0 SSW 9 11 5 6 1010.8 1010.4 0.0
24/03:00am 28.2 25.1 9.0 30 10.6 SSE 15 19 8 10 1010.2 1009.8 0.0
24/02:30am 27.8 24.8 9.1 31 10.3 SSE 15 22 8 12 1010.2 1009.8 0.0
24/02:00am 27.4 24.8 9.3 32 10.0 S 13 19 7 10 1011.2 1010.8 0.0
24/01:30am 27.7 25.0 9.0 31 10.3 SSW 13 19 7 10 1011.6 1011.2 0.0
24/01:00am 27.9 26.3 8.7 30 10.6 ESE 7 9 4 5 1011.4 1011.0 0.0
24/12:30am 28.0 26.4 8.8 30 10.6 SSE 7 11 4 6 1011.5 1011.1 0.0
24/12:00am 28.5 26.1 8.7 29 10.9 SSE 11 13 6 7 1011.4 1011.0 0.0
 
Date/Time
EDT
Temp
°C
App
Temp
°C
Dew
Point
Rel
Hum
%
Delta-T
°C
Wind Press
QNH
hPa
Press
MSL
hPa
Rain
since 9 am
mm
Dir
 
Spd
km/h
Gust
km/h
Spd
kts
Gust
kts
23/11:30pm 28.8 25.2 8.5 28 11.2 SSE 17 22 9 12 1011.0 1010.6 0.0
23/11:00pm 28.3 26.7 8.6 29 10.8 S 7 9 4 5 1012.6 1012.2 0.0
23/10:30pm 29.2 27.6 8.8 28 11.3 SSE 7 11 4 6 1012.7 1012.3 0.0
23/10:00pm 29.6 27.4 9.2 28 11.4 SSE 11 13 6 7 1012.5 1012.1 0.0
23/09:30pm 30.3 27.8 9.8 28 11.6 SSW 13 17 7 9 1012.6 1012.2 0.0
23/09:00pm 30.9 28.2 10.3 28 11.8 S 15 24 8 13 1011.9 1011.5 0.0
23/08:30pm 31.0 27.8 11.4 30 11.4 SSE 19 26 10 14 1011.0 1010.6 0.0
23/08:00pm 31.1 28.1 12.5 32 11.0 S 20 30 11 16 1010.8 1010.4 0.0
23/07:30pm 31.6 28.0 12.9 32 11.2 SSW 24 33 13 18 1010.1 1009.7 0.0
23/07:00pm 32.2 28.1 13.9 33 11.2 SSW 28 41 15 22 1009.7 1009.3 0.0
23/06:30pm 34.1 29.3 13.0 28 12.8 SSW 30 43 16 23 1009.6 1009.2 0.0
23/06:00pm 35.2 31.3 12.2 25 13.8 SW 24 33 13 18 1009.4 1009.0 0.0
23/05:30pm 36.3 32.0 13.1 25 14.2 SW 28 39 15 21 1009.3 1008.9 0.0
23/05:00pm 37.2 33.2 11.9 22 15.3 WSW 24 37 13 20 1009.5 1009.1 0.0
23/04:30pm 37.5 34.8 12.8 22 15.1 SW 19 26 10 14 1009.5 1009.1 0.0
23/04:00pm 36.7 34.3 12.8 24 14.6 SW 17 28 9 15 1009.5 1009.1 0.0
23/03:30pm 37.0 34.7 13.1 24 14.6 SSW 17 26 9 14 1009.6 1009.2 0.0
23/03:00pm 36.8 34.1 12.9 24 14.6 SSW 19 28 10 15 1009.9 1009.5 0.0
23/02:30pm 35.0 31.3 12.6 26 13.5 SSW 24 35 13 19 1009.9 1009.5 0.0
23/02:00pm 35.0 32.2 12.6 26 13.5 WSW 19 26 10 14 1010.2 1009.8 0.0
23/01:30pm 34.7 32.2 12.4 26 13.4 WSW 17 26 9 14 1010.2 1009.8 0.0
23/01:00pm 33.5 30.1 12.5 28 12.6 WSW 22 32 12 17 1010.5 1010.1 0.0
23/12:30pm 34.5 31.0 12.2 26 13.4 W 22 35 12 19 1011.0 1010.6 0.0
23/12:00pm 33.0 30.8 12.1 28 12.4 W 15 20 8 11 1010.2 1009.8 0.0
23/11:30am 32.5 30.3 12.2 29 12.1 W 15 22 8 12 1009.8 1009.4 0.0
23/11:00am 32.6 31.0 12.8 30 11.9 W 13 22 7 12 1009.7 1009.3 0.0
23/10:30am 31.3 29.3 12.6 31 11.1 W 15 20 8 11 1009.7 1009.3 0.0
23/10:00am 30.4 28.8 12.8 34 10.5 SW 13 17 7 9 1009.5 1009.1 0.0
23/09:30am 29.1 27.5 12.9 37 9.6 WSW 13 19 7 10 1009.3 1008.9 0.0
23/09:00am 28.4 26.9 11.9 36 9.6 SW 11 15 6 8 1009.1 1008.7 0.0
23/08:30am 27.5 26.8 11.5 37 9.2 S 6 9 3 5 1008.6 1008.1 0.0
23/08:00am 25.0 23.1 11.9 44 7.5 SSW 13 17 7 9 1008.2 1007.7 0.0
23/07:30am 23.8 21.5 10.5 43 7.4 SSW 13 15 7 8 1007.9 1007.4 0.0
23/07:00am 23.2 20.5 10.3 44 7.1 SW 15 20 8 11 1007.6 1007.1 0.0
23/06:30am 24.3 22.3 11.6 45 7.2 SW 13 19 7 10 1007.1 1006.6 0.0
23/06:00am 25.4 24.5 11.2 41 8.1 WNW 7 11 4 6 1006.4 1005.9 0.0
23/05:30am 25.7 23.5 12.2 43 7.8 NNE 15 19 8 10 1005.6 1005.2 0.0
23/05:00am 25.5 23.0 12.4 44 7.6 NNE 17 22 9 12 1005.3 1004.9 0.0
23/04:30am 25.1 22.4 11.6 42 7.7 NE 17 20 9 11 1005.2 1004.8 0.0
23/04:00am 25.5 22.3 11.3 41 8.1 NE 19 22 10 12 1005.4 1005.0 0.0
23/03:30am 25.9 22.5 11.3 40 8.3 ENE 20 24 11 13 1005.7 1005.3 0.0
23/03:00am 25.7 23.4 10.3 38 8.6 ENE 13 17 7 9 1006.4 1005.9 0.0
23/02:30am 26.0 23.3 10.2 37 8.8 ENE 15 20 8 11 1006.5 1006.0 0.0
23/02:00am 26.5 23.0 10.2 36 9.2 E 19 26 10 14 1006.7 1006.2 0.0
23/01:30am 26.7 22.4 10.8 37 9.0 E 24 30 13 16 1007.1 1006.6 0.0
23/01:00am 26.7 22.5 11.2 38 8.9 ESE 24 37 13 20 1007.6 1007.1 0.0
23/12:30am 27.2 22.3 11.2 36 9.1 ESE 28 37 15 20 1008.3 1007.8 0.0
23/12:00am 28.3 25.1 11.4 35 9.8 SE 19 28 10 15 1009.2 1008.8 0.0
 
Date/Time
EDT
Temp
°C
App
Temp
°C
Dew
Point
Rel
Hum
%
Delta-T
°C
Wind Press
QNH
hPa
Press
MSL
hPa
Rain
since 9 am
mm
Dir
 
Spd
km/h
Gust
km/h
Spd
kts
Gust
kts
22/11:30pm 28.9 25.8 12.3 36 9.7 SSE 20 28 11 15 1008.9 1008.5 0.0
22/11:00pm 28.7 29.2 15.6 45 8.1 E 7 11 4 6 1008.2 1007.7 0.0
22/10:30pm 30.3 29.2 13.1 34 10.3 SSE 11 17 6 9 1007.7 1007.2 0.0
22/10:00pm 30.4 28.1 10.4 29 11.5 E 13 13 7 7 1007.1 1006.6 0.0
22/09:30pm 30.8 28.7 9.6 27 12.0 E 11 13 6 7 1007.2 1006.7 0.0
22/09:00pm 31.7 29.6 9.8 26 12.5 E 11 13 6 7 1007.4 1006.9 0.0
22/08:30pm 32.9 31.5 9.7 24 13.3 NE 7 9 4 5 1007.4 1006.9 0.0
22/08:00pm 34.4 34.0 9.6 22 14.3 NE 2 6 1 3 1007.4 1006.9 0.0
22/07:30pm 35.9 35.4 9.4 20 15.3 N 2 9 1 5 1007.1 1006.6 0.0
22/07:00pm 35.5 33.8 9.8 21 14.9 NNW 9 11 5 6 1006.5 1006.0 0.0
22/06:30pm 36.0 34.4 10.2 21 15.1 W 9 13 5 7 1006.7 1006.2 0.0
22/06:00pm 36.6 34.2 10.0 20 15.6 W 13 20 7 11 1006.8 1006.3 0.0
22/05:30pm 36.8 33.1 10.2 20 15.6 W 20 30 11 16 1007.0 1006.5 0.0
22/05:00pm 36.4 34.3 11.3 22 15.0 W 13 19 7 10 1007.1 1006.6 0.0
22/04:30pm 33.0 30.4 12.1 28 12.4 SSW 17 20 9 11 1007.3 1006.8 0.0
22/04:20pm 32.9 27.8 12.0 28 12.4 SW 30 44 16 24 1008.2 1007.7 0.0
22/04:09pm 33.3 26.3 11.2 26 13.0 W 39 57 21 31 1008.9 1008.5 0.0
22/04:00pm 33.8 28.3 10.4 24 13.6 WNW 30 48 16 26 1009.0 1008.6 0.0
22/03:55pm 33.7 28.7 10.9 25 13.3 WNW 28 48 15 26 1009.1 1008.7 0.0
22/03:30pm 36.2 32.7 8.9 19 15.7 W 17 22 9 12 1008.4 1007.9 0.0
22/03:00pm 36.5 33.1 9.2 19 15.8 W 17 24 9 13 1008.2 1007.7 0.0
22/02:30pm 34.0 31.6 9.9 23 13.9 NNW 13 24 7 13 1008.0 1007.5 0.0
22/02:00pm 31.9 27.8 10.0 26 12.6 NNE 22 33 12 18 1009.2 1008.8 0.0
22/01:57pm 31.3 27.4 9.5 26 12.3 NNE 20 30 11 16 1008.6 1008.1 0.0
22/01:47pm 31.2 27.3 9.4 26 12.3 NNW 20 24 11 13 1010.6 1010.2 0.0
22/01:30pm 32.0 23.0 8.9 24 13.0 WNW 46 67 25 36 1011.7 1011.3 0.0
22/01:00pm 35.1 28.6 8.0 19 15.3 WNW 32 50 17 27 1011.0 1010.6 0.0
22/12:53pm 34.9 28.7 7.9 19 15.2 WNW 30 50 16 27 1010.9 1010.5 0.0
22/12:30pm 35.5 30.9 8.3 19 15.4 WNW 22 35 12 19 1010.6 1010.2 0.0
22/12:00pm 34.7 30.6 7.7 19 15.1 NNW 19 28 10 15 1010.6 1010.2 0.0
22/11:30am 35.3 30.7 8.2 19 15.3 NNW 22 32 12 17 1010.6 1010.2 0.0
22/11:00am 35.2 30.6 8.1 19 15.3 N 22 30 12 16 1010.5 1010.1 0.0
22/10:30am 33.4 29.6 7.4 20 14.4 N 17 26 9 14 1010.4 1010.0 0.0
22/10:00am 32.6 28.4 7.4 21 13.9 N 19 26 10 14 1010.5 1010.1 0.0
22/09:30am 31.5 26.5 7.9 23 13.0 NE 24 30 13 16 1010.4 1010.0 0.0
22/09:00am 30.1 25.4 7.9 25 12.2 NE 22 26 12 14 1010.5 1010.1 0.0
22/08:30am 27.8 23.6 7.6 28 10.9 NE 19 24 10 13 1010.8 1010.4 0.0
22/08:00am 25.8 22.7 7.4 31 9.8 ENE 13 17 7 9 1010.9 1010.5 0.0
22/07:30am 23.5 20.0 7.2 35 8.5 ENE 15 17 8 9 1010.8 1010.4 0.0
22/07:00am 21.2 18.3 6.7 39 7.4 ENE 11 13 6 7 1010.6 1010.2 0.0
22/06:30am 18.9 15.5 6.1 43 6.4 E 13 13 7 7 1010.4 1010.0 0.0
22/06:00am 19.0 15.7 6.5 44 6.3 E 13 13 7 7 1010.4 1010.0 0.0
22/05:30am 18.4 16.2 6.3 45 6.0 SSE 7 9 4 5 1010.3 1009.9 0.0
22/05:00am 19.0 16.5 6.5 44 6.3 SE 9 11 5 6 1010.1 1009.7 0.0
22/04:30am 19.1 16.5 6.2 43 6.4 SE 9 11 5 6 1009.7 1009.3 0.0
22/04:00am 19.6 16.2 6.0 41 6.8 SE 13 15 7 8 1009.5 1009.1 0.0
22/03:30am 19.6 16.9 5.6 40 6.9 SSE 9 13 5 7 1009.6 1009.2 0.0
22/03:00am 20.6 18.3 5.8 38 7.4 S 7 9 4 5 1009.7 1009.3 0.0
22/02:30am 20.8 18.5 5.6 37 7.6 SSE 7 7 4 4 1010.0 1009.6 0.0
22/02:00am 21.9 19.2 5.8 35 8.1 SSW 9 11 5 6 1010.2 1009.8 0.0
22/01:30am 22.6 20.4 6.0 34 8.4 SW 7 7 4 4 1010.6 1010.2 0.0
22/01:00am 22.9 20.9 6.2 34 8.5 SW 6 7 3 4 1010.9 1010.5 0.0
22/12:30am 22.9 20.8 5.8 33 8.7 WSW 6 7 3 4 1011.2 1010.8 0.0
22/12:00am 23.4 21.1 5.8 32 9.0 WSW 7 9 4 5 1011.3 1010.9 0.0
 
Date/Time
EDT
Temp
°C
App
Temp
°C
Dew
Point
Rel
Hum
%
Delta-T
°C
Wind Press
QNH
hPa
Press
MSL
hPa
Rain
since 9 am
mm
Dir
 
Spd
km/h
Gust
km/h
Spd
kts
Gust
kts
21/11:30pm 24.0 21.7 5.8 31 9.3 SW 7 11 4 6 1011.3 1010.9 0.0
21/11:00pm 24.4 22.2 6.2 31 9.4 SW 7 11 4 6 1011.3 1010.9 0.0
21/10:30pm 25.4 23.2 6.1 29 10.0 SW 7 9 4 5 1011.2 1010.8 0.0
21/10:00pm 26.2 24.0 6.3 28 10.4 SW 7 9 4 5 1011.1 1010.7 0.0
21/09:30pm 27.3 24.8 6.7 27 10.9 SW 9 11 5 6 1010.8 1010.4 0.0
21/09:00pm 28.3 26.1 6.4 25 11.6 SW 7 11 4 6 1010.5 1010.1 0.0
21/08:30pm 29.6 27.6 6.9 24 12.2 W 7 11 4 6 1010.3 1009.9 0.0
21/08:00pm 30.8 28.1 7.3 23 12.8 WSW 11 17 6 9 1009.9 1009.5 0.0
21/07:30pm 31.8 28.2 6.8 21 13.6 W 15 19 8 10 1009.6 1009.2 0.0
21/07:00pm 32.2 28.5 7.8 22 13.5 W 17 24 9 13 1009.4 1009.0 0.0
21/06:30pm 33.1 30.7 8.5 22 13.8 WSW 11 19 6 10 1009.2 1008.8 0.0
21/06:00pm 32.9 29.7 8.4 22 13.8 W 15 26 8 14 1009.1 1008.7 0.0
21/05:30pm 33.3 28.9 7.3 20 14.4 WSW 20 26 11 14 1009.1 1008.7 0.0
21/05:00pm 32.6 29.3 9.4 24 13.2 WSW 17 28 9 15 1009.0 1008.6 0.0
21/04:30pm 32.2 28.4 9.1 24 13.1 WSW 19 32 10 17 1009.2 1008.8 0.0
21/04:00pm 33.2 30.4 9.9 24 13.4 WNW 15 22 8 12 1009.3 1008.9 0.0
21/03:30pm 32.6 29.1 8.8 23 13.4 WNW 17 26 9 14 1009.8 1009.4 0.0
21/03:00pm 32.2 28.0 9.7 25 12.9 W 22 33 12 18 1010.2 1009.8 0.0
21/02:30pm 31.3 26.8 10.1 27 12.1 W 24 43 13 23 1010.4 1010.0 0.0
21/02:00pm 31.8 27.6 11.0 28 12.1 WSW 24 32 13 17 1010.7 1010.3 0.0
21/01:30pm 30.6 27.4 12.0 32 10.9 WNW 20 26 11 14 1011.1 1010.7 0.0

Other Formats:

Comma delimited format used in spreadsheet applications
http://www.bom.gov.au/fwo/IDN60801/IDN60801.95697.axf

JavaScript Object Notation format (JSON) in row-major order
http://www.bom.gov.au/fwo/IDN60801/IDN60801.95697.json